^^

Meteo Aereoporti Centro-Italia

 

 
LIRZ - Perugia S.Egidio (208 m.)
Dati ricevuti: 24/09/2018 21:50
Molto nuvoloso
Molto nuvoloso
 Vento da NNW
Vento: NNW 15 km/h
TEMPERATURA: 17°C
P.to di Rugiada: 9°C
Umidità: 59%
Pressione: 1022 hPa
Nuvole: Molto nuvoloso
Visibilità: 10 km
Dettagli Nuvole: Molto nuvoloso 1067 m
2018/09/24 19:50 LIRZ 241950Z 33008KT 300V090 9999 BKN035 17/09 Q1022
 
LIPY - Ancona Falconara (12 m.)
Dati ricevuti: 24/09/2018 21:50
Sereno
Sereno
 Vento da S
Vento: S 6 km/h
TEMPERATURA: 16°C
P.to di Rugiada: 13°C
Umidità: 83%
Pressione: 1025 hPa
Condizioni generali: Sereno
Visibilità: oltre 10 km
2018/09/24 19:50 LIPY 241950Z 18003KT CAVOK 16/13 Q1025
 
LIPR - Rimini Miramare (12 m.)
Dati ricevuti: 24/09/2018 21:50
Sereno
Sereno
 Vento da ENE
Vento: ENE 22 km/h
TEMPERATURA: 20°C
P.to di Rugiada: 9°C
Umidità: 49%
Pressione: 1025 hPa
Condizioni generali: Sereno
Visibilità: oltre 10 km
2018/09/24 19:50 LIPR 241950Z 06012KT 020V090 CAVOK 20/09 Q1025
 
LIRF - Roma Fiumicino (2 m.)
Dati ricevuti: 24/09/2018 21:50
Qualche nuvola
Qualche nuvola
 Vento da NNE
Vento: NNE 13 km/h
TEMPERATURA: 22°C
P.to di Rugiada: 14°C
Umidità: 61%
Pressione: 1017 hPa
Nuvole: Qualche nuvola
Visibilità: 10 km
Dettagli Nuvole: Qualche nuvola 1524 m
2018/09/24 19:50 LIRF 241950Z 03007KT 9999 FEW050 22/14 Q1017 NOSIG
 
LIRA - Roma Ciampino (129 m.)
Dati ricevuti: 24/09/2018 21:50
Qualche nuvola
Qualche nuvola
 Vento da NNE
Vento: NNE 9 km/h
TEMPERATURA: 23°C
P.to di Rugiada: 16°C
Umidità: 65%
Pressione: 1017 hPa
Nuvole: Qualche nuvola
Visibilità: 10 km
Dettagli Nuvole: Qualche nuvola 914 m
2018/09/24 19:50 LIRA 241950Z 02005KT 9999 FEW030 23/16 Q1017
 
LIRU - Roma Urbe (17 m.)
Dati ricevuti: 24/09/2018 19:50
Dati non aggiornati
Molto nuvoloso
Molto nuvoloso
 Vento da NNW
Vento: NNW 11 km/h
TEMPERATURA: 25°C
P.to di Rugiada: 15°C
Umidità: 54%
Pressione: 1015 hPa
Nuvole: Molto nuvoloso
Visibilità: 10 km
Dettagli Nuvole: Molto nuvoloso 914 m
2018/09/24 17:50 LIRU 241750Z 33006KT 9999 BKN030 25/15 Q1015
 
LIVF - Frontone (570 m.)
Dati ricevuti: 20/09/2018 13:55
Dati non aggiornati
Poco nuvoloso
Poco nuvoloso
 Vento da N
Vento: N 6 km/h
TEMPERATURA: 23°C
P.to di Rugiada: 15°C
Umidità: 61%
Pressione: 1019 hPa
Nuvole: Poco nuvoloso
Visibilità: 10 km
Dettagli Nuvole: Qualche nuvola 610 m
Poco nuvoloso 792 m
2018/09/20 11:55 LIVF 201155Z 36003KT 9999 FEW020TCU SCT026 23/15 Q1019
 
LIRQ - Firenze Peretola (40 m.)
Dati ricevuti: 24/09/2018 21:50
Sereno
Sereno
 Vento da N
Vento: N 19 km/h, Raffica: 37 km/h
TEMPERATURA: 20°C
P.to di Rugiada: 9°C
Umidità: 49%
Pressione: 1022 hPa
Condizioni generali: Sereno
Visibilità: oltre 10 km
2018/09/24 19:50 LIRQ 241950Z 36010G20KT 300V070 CAVOK 20/09 Q1022
 
LIBP - Pescara (10 m.)
Dati ricevuti: 24/09/2018 21:50
Molto nuvoloso
Molto nuvoloso
 Vento da SSW
Vento: SSW 11 km/h
TEMPERATURA: 16°C
P.to di Rugiada: 14°C
Umidità: 88%
Pressione: 1026 hPa
Nuvole: Molto nuvoloso
Visibilità: 10 km
Dettagli Nuvole: Poco nuvoloso 610 m
Molto nuvoloso 2591 m
2018/09/24 19:50 LIBP 241950Z 21006KT 9999 SCT020 BKN085 16/14 Q1026
 
LIRV - Viterbo (300 m.)
Dati ricevuti: 24/09/2018 19:55
Dati non aggiornati
Qualche nuvola
Qualche nuvola
 Vento da direzione variabile
Vento: direzione variabile 0 km/h
TEMPERATURA: 19°C
P.to di Rugiada: 13°C
Umidità: 68%
Pressione: 1017 hPa
Nuvole: Qualche nuvola
Visibilità: 10 km
Dettagli Nuvole: Qualche nuvola 762 m
2018/09/24 17:55 LIRV 241755Z /////KT 9999 FEW025 19/13 Q1017
 
LIQN - Rieti (389 m.)
Dati ricevuti: 24/09/2018 19:50
Dati non aggiornati
Sereno
Sereno
 Vento da E
Vento: E 11 km/h
TEMPERATURA: 22°C
P.to di Rugiada: 13°C
Umidità: 57%
Pressione: 1017 hPa
Condizioni generali: Sereno
Visibilità: oltre 10 km
2018/09/24 17:50 LIQN 241750Z 08006KT CAVOK 22/13 Q1017
 
LIRG - Guidonia -RM- (88 m.)
Dati ricevuti: 24/09/2018 19:55
Dati non aggiornati
Molto nuvoloso
Molto nuvoloso
 Vento da WNW
Vento: WNW 11 km/h
TEMPERATURA: 25°C
P.to di Rugiada: 16°C
Umidità: 57%
Pressione: 1015 hPa
Nuvole: Molto nuvoloso
Visibilità: 10 km
Dettagli Nuvole: Molto nuvoloso 762 m
2018/09/24 17:55 LIRG 241755Z 30006KT 9999 BKN025TCU 25/16 Q1015
 
LIRK - Terminillo -RI-(1874 m.)
Dati ricevuti: 08/06/2018 02:55
Dati non aggiornati

 Vento da direzione variabile
Vento: direzione variabile 0 km/h
2018/06/08 00:55 LIRK 080055Z AUTO /////KT //// ///// Q////
 
LIPK - Forlì (27 m.)
Dati ricevuti: 24/09/2018 17:50
Dati non aggiornati
Qualche nuvola
Qualche nuvola
 Vento da E
Vento: E 13 km/h
TEMPERATURA: 22°C
P.to di Rugiada: 14°C
Umidità: 61%
Pressione: 1021 hPa
Nuvole: Qualche nuvola
Visibilità: 10 km
Dettagli Nuvole: Qualche nuvola 914 m
2018/09/24 15:50 LIPK 241550Z 09007KT 9999 FEW030 22/14 Q1021
 
LIRS - Grosseto (5 m.)
Dati ricevuti: 24/09/2018 21:55
Qualche nuvola
Qualche nuvola
 Vento da NNE
Vento: NNE 31 km/h
TEMPERATURA: 20°C
P.to di Rugiada: 12°C
Umidità: 60%
Pressione: 1019 hPa
Nuvole: Qualche nuvola
Visibilità: 10 km
Dettagli Nuvole: Qualche nuvola 914 m
2018/09/24 19:55 LIRS 241955Z 02017KT 9999 FEW030 20/12 Q1019
 
LIRP - Pisa S.Giusto (2 m.)
Dati ricevuti: 24/09/2018 21:45
Sereno
Sereno
 Vento da E
Vento: E 20 km/h
TEMPERATURA: 20°C
P.to di Rugiada: 8°C
Umidità: 46%
Pressione: 1020 hPa
Condizioni generali: Sereno
Visibilità: oltre 10 km
2018/09/24 19:45 LIRP 241945Z 09011KT CAVOK 20/08 Q1020 NOSIG